Time;durP1;ratioP1;P1;durP2;ratioP2;P2;SDS_P1;SDS_P2;PMS_P1;PMS_P2;Temp;Humidity;BMP_temperature;BMP_pressure;BME280_temperature;BME280_humidity;BME280_pressure;Samples;Min_cycle;Max_cycle;Signal;HPM_P1;HPM_P2
2023/01/11 00:00:10;;;;;;;22.55;9.50;;;;;;;7.78;100.00;99927.81;5003067;28;20583;-80
2023/01/11 00:02:36;;;;;;;20.98;9.43;;;;;;;7.72;100.00;99933.00;5006186;28;20068;-80
2023/01/11 00:05:03;;;;;;;21.45;10.38;;;;;;;7.70;100.00;99926.03;5007464;28;20037;-80
2023/01/11 00:07:29;;;;;;;16.23;8.30;;;;;;;7.56;100.00;99890.34;5010477;28;20042;-80
2023/01/11 00:09:54;;;;;;;27.50;11.48;;;;;;;7.78;100.00;99937.41;5008043;28;20390;-81
2023/01/11 00:12:20;;;;;;;20.85;9.10;;;;;;;7.43;100.00;99865.03;5005041;28;20663;-80
2023/01/11 00:14:45;;;;;;;18.13;8.80;;;;;;;7.72;100.00;99919.09;5010360;28;20061;-81
2023/01/11 00:17:11;;;;;;;20.10;9.95;;;;;;;7.87;100.00;99988.81;5011348;28;20033;-80
2023/01/11 00:19:36;;;;;;;14.50;8.68;;;;;;;7.27;100.00;99848.44;5001179;28;20054;-79
2023/01/11 00:22:01;;;;;;;18.23;7.35;;;;;;;7.80;100.00;99952.22;5011886;28;20083;-81
2023/01/11 00:24:27;;;;;;;19.08;8.70;;;;;;;7.10;100.00;99865.78;5002000;28;20058;-82
2023/01/11 00:26:52;;;;;;;16.67;8.55;;;;;;;7.29;100.00;99846.72;5002230;28;20057;-81
2023/01/11 00:29:18;;;;;;;30.60;8.82;;;;;;;7.77;100.00;99927.81;5004484;28;20374;-81
2023/01/11 00:31:43;;;;;;;21.63;7.82;;;;;;;7.81;100.00;99933.06;5006357;28;20559;-80
2023/01/11 00:34:09;;;;;;;27.77;8.57;;;;;;;8.00;100.00;99969.69;5005158;28;20056;-81
2023/01/11 00:36:34;;;;;;;18.60;8.27;;;;;;;7.23;100.00;99857.13;5003846;28;20054;-79
2023/01/11 00:39:02;;;;;;;17.80;6.70;;;;;;;7.07;100.00;99835.31;5007790;28;20429;-80
2023/01/11 00:49:42;;;;;;;26.77;7.95;;;;;;;7.65;100.00;99983.47;5013570;28;20091;-78
2023/01/11 00:52:08;;;;;;;18.92;9.23;;;;;;;7.42;100.00;99972.91;5004389;28;20132;-79
2023/01/11 00:54:38;;;;;;;26.73;8.57;;;;;;;7.18;100.00;99871.88;5012497;28;20068;-76
2023/01/11 00:57:06;;;;;;;24.77;8.80;;;;;;;7.64;100.00;99973.03;5005112;28;20081;-78
2023/01/11 00:59:35;;;;;;;21.08;9.27;;;;;;;7.09;100.00;99837.91;5005359;28;20030;-76
2023/01/11 01:02:01;;;;;;;24.23;8.57;;;;;;;7.36;100.00;99945.03;5003833;28;20026;-78
2023/01/11 01:04:26;;;;;;;19.23;8.32;;;;;;;7.57;100.00;99939.06;5010716;28;20061;-80
2023/01/11 01:06:52;;;;;;;43.22;10.88;;;;;;;7.77;100.00;99965.28;5000315;28;20124;-78
2023/01/11 01:09:17;;;;;;;19.85;7.60;;;;;;;7.57;100.00;99939.06;5005407;28;20057;-78
2023/01/11 01:11:43;;;;;;;26.80;9.15;;;;;;;7.42;100.00;99915.47;5013120;28;20494;-77
2023/01/11 01:14:28;;;;;;;25.38;10.30;;;;;;;7.13;100.00;99865.78;5000817;28;20406;-79
2023/01/11 01:17:02;;;;;;;23.98;8.48;;;;;;;7.15;100.00;99845.78;5001111;28;20461;-79
2023/01/11 01:19:29;;;;;;;21.88;8.50;;;;;;;7.24;100.00;99884.97;5005459;28;20069;-79
2023/01/11 01:21:56;;;;;;;28.13;8.07;;;;;;;7.83;100.00;99978.34;5004122;28;20061;-77
2023/01/11 01:24:22;;;;;;;34.50;9.60;;;;;;;7.95;100.00;99994.94;5010469;28;20084;-78
2023/01/11 01:26:48;;;;;;;24.95;9.95;;;;;;;7.16;100.00;99876.22;5002723;28;20512;-80
2023/01/11 01:29:14;;;;;;;27.08;8.35;;;;;;;7.21;100.00;99884.06;5008090;28;20045;-78
2023/01/11 01:31:41;;;;;;;23.55;8.00;;;;;;;7.38;100.00;99890.25;5005468;28;20050;-79
2023/01/11 01:34:08;;;;;;;18.52;9.00;;;;;;;7.35;100.00;99883.28;5003607;28;20222;-76
2023/01/11 01:36:33;;;;;;;28.40;10.15;;;;;;;7.76;100.00;99968.72;5000345;28;20513;-79
2023/01/11 01:39:00;;;;;;;28.20;9.38;;;;;;;7.50;100.00;99900.75;5009469;28;20041;-78
2023/01/11 01:41:26;;;;;;;27.45;9.45;;;;;;;7.99;100.00;99975.78;5004456;28;20038;-77
2023/01/11 01:43:53;;;;;;;23.45;9.35;;;;;;;7.94;100.00;99982.75;5008928;28;20041;-77
2023/01/11 01:46:21;;;;;;;23.35;10.13;;;;;;;7.89;100.00;99958.31;5006245;28;20061;-79
2023/01/11 01:48:55;;;;;;;28.08;9.43;;;;;;;7.36;100.00;99858.91;5006177;28;20046;-78
2023/01/11 01:51:27;;;;;;;32.72;9.88;;;;;;;8.01;100.00;99982.78;5010794;28;20046;-78
2023/01/11 01:53:57;;;;;;;29.52;10.43;;;;;;;7.46;100.00;99878.09;5009771;28;20057;-79
2023/01/11 01:56:30;;;;;;;31.85;10.57;;;;;;;6.87;100.00;99844.78;5004435;28;20053;-79
2023/01/11 01:59:00;;;;;;;23.63;8.98;;;;;;;6.70;100.00;99819.47;5015234;28;20413;-80
2023/01/11 02:04:15;;;;;;;26.70;10.57;;;;;;;7.65;100.00;99946.06;5006654;28;20084;-79
2023/01/11 02:06:41;;;;;;;23.90;8.80;;;;;;;7.41;100.00;99898.09;5004765;28;20041;-82
2023/01/11 02:09:26;;;;;;;25.05;9.32;;;;;;;6.96;100.00;99829.19;5006850;28;20120;-81
2023/01/11 02:11:54;;;;;;;42.67;9.45;;;;;;;7.56;100.00;99924.28;5009886;28;20552;-82
2023/01/11 02:14:21;;;;;;;22.95;10.65;;;;;;;7.31;100.00;99859.78;5006155;28;20064;-82
2023/01/11 02:16:46;;;;;;;31.60;9.80;;;;;;;7.62;100.00;99907.75;5005217;28;20401;-83
2023/01/11 02:19:42;;;;;;;21.88;8.80;;;;;;;7.81;100.00;99942.63;5010400;28;20126;-79
2023/01/11 02:22:21;;;;;;;27.20;9.90;;;;;;;7.81;100.00;99934.78;5007657;28;20219;-80
2023/01/11 02:24:56;;;;;;;28.67;9.88;;;;;;;7.65;100.00;99930.38;5005231;28;20050;-79
2023/01/11 02:27:25;;;;;;;23.48;11.13;;;;;;;7.56;100.00;99924.28;5012468;28;20038;-77
2023/01/11 02:30:08;;;;;;;26.27;9.77;;;;;;;7.58;100.00;99924.25;5010674;28;20050;-79
2023/01/11 02:32:52;;;;;;;32.17;11.07;;;;;;;6.80;100.00;99789.09;5006653;28;20029;-80
2023/01/11 02:35:36;;;;;;;33.33;10.50;;;;;;;7.34;100.00;99901.53;5000081;28;20480;-80
2023/01/11 02:38:14;;;;;;;26.83;11.43;;;;;;;7.16;100.00;99850.13;5017616;28;20045;-79
2023/01/11 02:41:16;;;;;;;34.83;12.18;;;;;;;7.10;100.00;99830.09;5012879;28;20104;-78
2023/01/11 02:47:06;;;;;;;27.02;10.15;;;;;;;6.78;100.00;99743.88;5007054;28;20065;-79
2023/01/11 02:49:38;;;;;;;17.95;9.68;;;;;;;7.75;100.00;99875.59;5007379;28;20070;-80
2023/01/11 02:52:17;;;;;;;30.42;12.13;;;;;;;7.75;100.00;99888.66;5011972;28;20050;-78
2023/01/11 02:54:52;;;;;;;22.50;10.60;;;;;;;7.04;100.00;99774.44;5016085;28;20551;-80
2023/01/11 02:57:19;;;;;;;25.45;11.02;;;;;;;7.01;100.00;99764.84;5002067;28;20058;-79
2023/01/11 02:59:48;;;;;;;40.35;11.65;;;;;;;7.18;100.00;99804.03;5010089;28;20045;-78
2023/01/11 03:02:15;;;;;;;23.85;9.65;;;;;;;7.38;100.00;99804.13;5008838;28;20095;-78
2023/01/11 03:04:41;;;;;;;25.48;12.30;;;;;;;7.61;100.00;99857.28;5010476;28;20053;-79
2023/01/11 03:07:18;;;;;;;30.70;12.45;;;;;;;7.80;100.00;99870.38;5004183;28;20057;-80
2023/01/11 03:10:14;;;;;;;30.73;12.75;;;;;;;7.81;100.00;99864.28;5007613;28;20061;-77
2023/01/11 03:13:15;;;;;;;31.75;11.68;;;;;;;7.78;100.00;99846.88;5000827;28;20129;-77
2023/01/11 03:16:18;;;;;;;31.63;13.25;;;;;;;7.85;100.00;99846.88;5020635;28;20050;-77
2023/01/11 03:18:51;;;;;;;25.90;13.07;;;;;;;7.11;100.00;99745.75;5013839;28;20761;-79
2023/01/11 03:21:38;;;;;;;28.83;11.55;;;;;;;7.31;100.00;99747.56;5012412;28;20057;-77
2023/01/11 03:24:31;;;;;;;29.67;12.15;;;;;;;7.20;100.00;99726.66;5004136;28;20060;-78
2023/01/11 03:27:07;;;;;;;27.67;11.80;;;;;;;7.93;100.00;99846.00;5004524;28;20050;-78
2023/01/11 03:29:46;;;;;;;37.35;14.05;;;;;;;7.51;100.00;99773.69;5005677;28;20033;-79
2023/01/11 03:32:17;;;;;;;26.67;14.38;;;;;;;7.86;100.00;99840.78;5003379;28;20041;-78
2023/01/11 03:35:14;;;;;;;33.88;13.15;;;;;;;7.87;100.00;99829.47;5004705;28;20522;-78
2023/01/11 03:37:45;;;;;;;32.83;13.82;;;;;;;7.90;100.00;99832.97;5008685;28;20063;-79
2023/01/11 03:40:23;;;;;;;27.85;11.57;;;;;;;7.52;100.00;99736.31;5006614;28;20053;-80
2023/01/11 03:43:10;;;;;;;36.10;13.77;;;;;;;7.38;100.00;99726.69;5007676;28;20132;-78
2023/01/11 03:46:10;;;;;;;28.55;12.63;;;;;;;7.95;100.00;99815.53;5006360;28;20053;-79
2023/01/11 03:49:03;;;;;;;41.38;13.95;;;;;;;7.17;100.00;99704.03;4993576;28;20100;-78
2023/01/11 03:51:40;;;;;;;34.20;13.75;;;;;;;7.80;100.00;99805.97;5007278;28;20077;-80
2023/01/11 03:54:09;;;;;;;22.83;11.15;;;;;;;7.49;100.00;99746.72;5005124;28;20053;-80
2023/01/11 03:56:49;;;;;;;24.70;13.38;;;;;;;7.74;100.00;99798.09;5012120;28;20436;-79
2023/01/11 03:59:14;;;;;;;38.10;13.93;;;;;;;7.77;100.00;99787.69;5008052;28;20088;-77
2023/01/11 04:01:40;;;;;;;26.58;12.15;;;;;;;7.89;100.00;99835.56;5010526;28;20055;-77
2023/01/11 04:04:05;;;;;;;30.80;13.68;;;;;;;7.33;100.00;99730.19;5006938;28;20489;-78
2023/01/11 04:06:34;;;;;;;26.52;12.25;;;;;;;7.30;100.00;99733.63;5003137;28;20719;-78
2023/01/11 04:09:00;;;;;;;28.00;14.43;;;;;;;7.36;100.00;99754.53;5004156;28;20092;-79
2023/01/11 04:11:25;;;;;;;33.30;14.52;;;;;;;8.02;100.00;99856.47;5007012;28;20037;-78
2023/01/11 04:13:51;;;;;;;26.02;11.75;;;;;;;7.81;100.00;99835.56;4998770;28;20037;-80
2023/01/11 04:16:16;;;;;;;22.25;10.85;;;;;;;7.95;100.00;99835.56;5002760;28;20054;-79
2023/01/11 04:18:41;;;;;;;25.55;11.88;;;;;;;7.82;100.00;99819.03;5004753;28;20057;-80
2023/01/11 04:21:08;;;;;;;28.15;11.80;;;;;;;7.71;100.00;99790.28;5001311;28;20046;-81
2023/01/11 04:23:34;;;;;;;24.88;12.65;;;;;;;7.50;100.00;99756.31;5010801;28;20077;-79
2023/01/11 04:26:00;;;;;;;32.58;12.98;;;;;;;8.07;100.00;99859.09;5001494;28;20153;-79
2023/01/11 04:28:25;;;;;;;30.42;11.55;;;;;;;7.22;100.00;99716.22;5005216;28;20050;-78
2023/01/11 04:30:50;;;;;;;28.08;11.25;;;;;;;7.60;100.00;99774.56;5005678;28;20092;-81
2023/01/11 04:33:18;;;;;;;31.40;10.70;;;;;;;7.95;100.00;99838.19;5000756;28;20478;-78
2023/01/11 04:35:44;;;;;;;17.65;9.90;;;;;;;7.89;100.00;99841.69;5003911;28;20061;-79
2023/01/11 04:38:09;;;;;;;16.25;9.75;;;;;;;7.26;100.00;99717.94;5014884;28;20033;-78
2023/01/11 04:40:34;;;;;;;25.70;9.73;;;;;;;7.54;100.00;99763.28;5005834;28;20051;-79
2023/01/11 04:43:01;;;;;;;19.33;9.27;;;;;;;7.43;100.00;99738.88;5003280;28;20096;-78
2023/01/11 04:45:27;;;;;;;28.58;9.65;;;;;;;7.43;100.00;99737.16;5002456;28;20076;-78
2023/01/11 04:47:55;;;;;;;21.67;10.25;;;;;;;8.09;100.00;99852.13;5006433;28;20046;-78
2023/01/11 04:50:21;;;;;;;21.33;10.32;;;;;;;7.26;100.00;99725.78;5004982;28;20106;-78
2023/01/11 04:52:47;;;;;;;15.82;9.48;;;;;;;7.77;100.00;99808.56;4998275;28;20034;-78
2023/01/11 04:55:12;;;;;;;18.95;8.93;;;;;;;8.03;100.00;99858.25;4996933;28;20053;-79
2023/01/11 04:57:37;;;;;;;19.67;9.15;;;;;;;7.81;100.00;99818.13;5001238;28;20046;-78
2023/01/11 05:00:09;;;;;;;18.50;9.40;;;;;;;7.23;100.00;99742.31;5012083;28;20092;-78
2023/01/11 05:02:35;;;;;;;18.73;8.52;;;;;;;7.03;100.00;99684.00;5005404;28;20061;-80
2023/01/11 05:05:01;;;;;;;21.27;8.43;;;;;;;7.36;100.00;99746.69;5007791;28;20083;-79
2023/01/11 05:07:27;;;;;;;17.63;9.90;;;;;;;7.80;100.00;99812.94;5007567;28;20772;-79
2023/01/11 05:09:52;;;;;;;17.60;9.57;;;;;;;7.29;100.00;99729.28;5011638;28;20084;-80
2023/01/11 05:12:17;;;;;;;16.40;9.02;;;;;;;8.11;100.00;99873.91;5005631;28;20557;-80
2023/01/11 05:14:43;;;;;;;19.55;9.93;;;;;;;7.98;100.00;99879.97;5007282;28;20502;-81
2023/01/11 05:17:12;;;;;;;18.90;9.00;;;;;;;7.37;100.00;99761.50;5012085;28;20042;-78
2023/01/11 05:19:38;;;;;;;17.30;9.80;;;;;;;7.38;100.00;99765.84;5012054;28;20128;-80
2023/01/11 05:22:03;;;;;;;17.40;10.43;;;;;;;7.32;100.00;99762.34;5007633;28;20087;-79
2023/01/11 05:24:29;;;;;;;14.10;8.93;;;;;;;8.09;100.00;99888.72;5005657;28;20129;-78
2023/01/11 05:26:54;;;;;;;22.17;10.23;;;;;;;8.04;100.00;99896.53;5009669;28;20046;-79
2023/01/11 05:29:20;;;;;;;18.48;9.70;;;;;;;7.46;100.00;99785.88;5009658;28;20045;-80
2023/01/11 05:31:46;;;;;;;12.10;8.73;;;;;;;7.24;100.00;99753.63;5008354;28;20040;-80
2023/01/11 05:34:13;;;;;;;14.50;9.23;;;;;;;7.27;100.00;99756.25;5008022;28;20433;-79
2023/01/11 05:36:39;;;;;;;14.90;9.25;;;;;;;7.49;100.00;99786.75;5006161;28;20433;-80
2023/01/11 05:39:05;;;;;;;16.15;9.48;;;;;;;7.41;100.00;99770.19;5008974;28;20061;-82
2023/01/11 05:41:30;;;;;;;15.07;8.35;;;;;;;7.88;100.00;99873.00;5010261;28;20532;-80
2023/01/11 05:46:43;;;;;;;14.05;9.90;;;;;;;8.04;100.00;99885.22;5007103;28;20525;-79
2023/01/11 05:49:10;;;;;;;19.40;9.45;;;;;;;8.15;100.00;99924.47;5012598;28;20183;-78
2023/01/11 05:51:37;;;;;;;21.70;10.70;;;;;;;7.51;100.00;99812.84;5008215;28;20045;-79
2023/01/11 05:54:04;;;;;;;18.05;9.88;;;;;;;8.12;100.00;99947.94;5010340;28;20049;-79
2023/01/11 05:56:30;;;;;;;27.88;12.93;;;;;;;7.48;100.00;99825.91;5007582;28;20091;-80
2023/01/11 05:58:55;;;;;;;21.02;9.95;;;;;;;7.83;100.00;99886.91;5009246;28;20470;-79
2023/01/11 06:01:23;;;;;;;20.25;10.70;;;;;;;8.22;100.00;99936.66;5008105;28;20695;-80
2023/01/11 06:03:48;;;;;;;19.05;10.38;;;;;;;7.39;100.00;99808.47;5008982;28;20049;-77
2023/01/11 06:06:15;;;;;;;17.17;10.30;;;;;;;8.16;100.00;99955.78;5012576;28;20112;-80
2023/01/11 06:08:41;;;;;;;23.38;10.13;;;;;;;8.09;100.00;99930.53;5006979;28;20089;-81
2023/01/11 06:11:06;;;;;;;25.63;10.80;;;;;;;8.06;100.00;99947.94;5007442;28;20065;-80
2023/01/11 06:13:32;;;;;;;19.83;9.35;;;;;;;6.93;100.00;99741.38;5010282;28;20834;-80
2023/01/11 06:16:09;;;;;;;19.05;9.00;;;;;;;8.18;100.00;99981.94;5008212;28;20042;-79
2023/01/11 06:18:51;;;;;;;24.90;9.60;;;;;;;7.90;100.00;99919.16;5007739;28;20857;-81
2023/01/11 06:21:18;;;;;;;29.13;10.52;;;;;;;8.20;100.00;99975.00;5004681;28;20081;-80
2023/01/11 06:23:47;;;;;;;19.92;8.93;;;;;;;7.47;100.00;99871.13;5005598;28;20055;-80
2023/01/11 06:26:15;;;;;;;25.45;11.23;;;;;;;7.35;100.00;99844.13;5008826;28;20050;-80
2023/01/11 06:28:41;;;;;;;28.40;10.65;;;;;;;8.21;100.00;99995.00;5010691;28;20054;-80
2023/01/11 06:31:08;;;;;;;17.33;9.45;;;;;;;7.77;100.00;99917.38;4998351;28;20049;-80
2023/01/11 06:33:35;;;;;;;20.50;8.55;;;;;;;8.03;100.00;99982.78;5007613;28;20442;-79
2023/01/11 06:36:06;;;;;;;27.30;9.90;;;;;;;7.42;100.00;99865.03;4991291;28;20077;-80
2023/01/11 06:38:32;;;;;;;21.15;9.63;;;;;;;7.26;100.00;99866.69;5006963;28;20114;-82
2023/01/11 06:41:00;;;;;;;23.30;10.40;;;;;;;8.14;100.00;99991.50;5006855;28;20045;-83
2023/01/11 06:43:27;;;;;;;18.75;10.02;;;;;;;8.09;100.00;100015.88;5000641;28;20461;-82
2023/01/11 06:45:52;;;;;;;23.25;9.18;;;;;;;7.33;100.00;99868.50;5005061;28;20064;-82
2023/01/11 06:48:19;;;;;;;17.70;9.13;;;;;;;8.24;100.00;100019.44;5002247;28;20489;-84
2023/01/11 06:50:49;;;;;;;21.00;10.35;;;;;;;7.62;100.00;99918.19;4999979;28;20216;-81
2023/01/11 06:53:15;;;;;;;17.73;8.60;;;;;;;8.08;100.00;100011.50;5001345;28;20091;-76
2023/01/11 06:55:41;;;;;;;20.60;8.95;;;;;;;7.59;100.00;99910.34;4996562;28;20050;-76
2023/01/11 06:58:06;;;;;;;20.30;8.45;;;;;;;8.04;100.00;100013.25;5000882;28;20053;-76
2023/01/11 07:00:32;;;;;;;19.95;7.97;;;;;;;7.91;100.00;99974.88;5000925;28;20046;-76
2023/01/11 07:03:06;;;;;;;20.20;7.57;;;;;;;7.88;100.00;99996.63;5004669;28;20062;-76
2023/01/11 07:05:34;;;;;;;20.38;7.90;;;;;;;8.09;100.00;100019.38;4997266;28;20041;-75
2023/01/11 07:07:59;;;;;;;19.15;7.28;;;;;;;8.31;100.00;100040.34;5004484;28;20022;-76
2023/01/11 07:10:25;;;;;;;17.38;6.57;;;;;;;8.12;100.00;100021.97;5001639;28;20127;-75
2023/01/11 07:12:50;;;;;;;12.98;6.60;;;;;;;7.82;100.00;99949.63;4997684;28;20122;-76
2023/01/11 07:15:16;;;;;;;16.70;7.82;;;;;;;7.70;100.00;99941.72;4999909;28;20497;-78
2023/01/11 07:17:42;;;;;;;13.60;6.75;;;;;;;7.77;100.00;99964.38;4998799;28;20089;-77
2023/01/11 07:20:09;;;;;;;15.40;5.65;;;;;;;8.02;100.00;100005.41;5001261;28;20057;-77
2023/01/11 07:22:35;;;;;;;14.27;5.65;;;;;;;7.51;100.00;99933.78;5006125;28;20092;-77
2023/01/11 07:25:01;;;;;;;14.25;6.38;;;;;;;7.70;100.00;99955.66;5003728;28;20414;-76
2023/01/11 07:27:27;;;;;;;23.52;6.82;;;;;;;8.41;100.00;100087.47;5007190;28;20050;-77
2023/01/11 07:29:52;;;;;;;11.07;5.00;;;;;;;8.33;100.00;100057.78;5008051;28;20090;-78
2023/01/11 07:32:19;;;;;;;12.20;6.13;;;;;;;8.24;100.00;100042.06;5003588;28;20046;-77
2023/01/11 07:34:44;;;;;;;17.55;6.30;;;;;;;8.27;100.00;100088.28;4999003;28;20152;-75
2023/01/11 07:37:11;;;;;;;9.93;5.85;;;;;;;8.16;100.00;100083.84;5003160;28;20207;-75
2023/01/11 07:39:37;;;;;;;7.90;5.35;;;;;;;7.81;100.00;100006.19;5005299;28;20038;-77
2023/01/11 07:44:47;;;;;;;11.63;6.38;;;;;;;8.02;100.00;100083.78;4999344;28;20069;-78
2023/01/11 07:47:12;;;;;;;16.70;7.47;;;;;;;8.04;100.00;100070.75;5004957;28;20038;-79
2023/01/11 07:49:37;;;;;;;11.55;6.03;;;;;;;7.49;100.00;100070.41;5006808;28;20046;-77
2023/01/11 07:52:03;;;;;;;10.35;6.03;;;;;;;7.90;100.00;100111.59;5009672;28;20053;-77
2023/01/11 07:54:29;;;;;;;14.13;6.20;;;;;;;7.15;100.00;99986.66;5007459;28;20079;-77
2023/01/11 07:56:55;;;;;;;11.20;6.38;;;;;;;7.45;100.00;100045.16;5008549;28;20052;-78
2023/01/11 07:59:21;;;;;;;12.70;6.40;;;;;;;7.25;100.00;100016.31;5009807;28;20037;-80
2023/01/11 08:01:47;;;;;;;14.57;6.53;;;;;;;7.23;100.00;100026.72;5000502;28;20041;-74
2023/01/11 08:04:13;;;;;;;15.10;6.97;;;;;;;7.67;100.00;100119.28;4991409;28;20054;-80
2023/01/11 08:06:39;;;;;;;19.88;6.78;;;;;;;7.98;100.00;100157.81;4995887;28;20046;-78
2023/01/11 08:09:06;;;;;;;14.90;5.53;;;;;;;7.63;100.00;100120.97;5000553;28;20054;-79
2023/01/11 08:17:00;;;;;;;16.77;5.15;;;;;;;6.52;100.00;100135.59;4998164;28;20088;-75
2023/01/11 08:19:26;;;;;;;6.78;3.45;;;;;;;6.68;100.00;100186.19;5002786;28;20046;-74
2023/01/11 08:21:51;;;;;;;5.10;3.08;;;;;;;6.18;100.00;100186.41;5004539;28;20502;-75
2023/01/11 08:24:17;;;;;;;25.48;10.25;;;;;;;6.26;100.00;100187.38;5005401;28;20382;-73
2023/01/11 08:26:43;;;;;;;251.90;148.48;;;;;;;6.80;100.00;100177.63;5003364;28;20120;-73
2023/01/11 08:29:08;;;;;;;95.90;42.72;;;;;;;6.66;100.00;100205.28;5007574;28;20110;-73
2023/01/11 08:31:34;;;;;;;157.48;68.45;;;;;;;5.70;100.00;99984.34;5005973;28;20826;-74
2023/01/11 08:33:59;;;;;;;14.07;6.45;;;;;;;5.88;100.00;100228.47;5001284;28;20413;-71
2023/01/11 08:36:26;;;;;;;109.22;50.85;;;;;;;9.04;100.00;100160.03;5006361;28;20100;-74
2023/01/11 08:38:55;;;;;;;41.60;18.92;;;;;;;7.92;100.00;100241.34;5001310;28;20045;-73
2023/01/11 08:41:22;;;;;;;12.43;6.47;;;;;;;8.39;100.00;100170.22;5002012;28;21227;-73
2023/01/11 08:43:48;;;;;;;6.65;3.85;;;;;;;6.00;100.00;100285.09;4997409;28;20341;-76
2023/01/11 08:46:14;;;;;;;10.68;3.60;;;;;;;5.36;100.00;100233.66;4998351;28;20088;-76
2023/01/11 08:48:40;;;;;;;5.63;2.88;;;;;;;5.17;100.00;100162.19;5002088;28;20218;-75
2023/01/11 08:51:06;;;;;;;8.98;3.60;;;;;;;4.95;100.00;100121.94;5004041;28;20576;-74
2023/01/11 08:53:31;;;;;;;5.40;2.50;;;;;;;5.08;100.00;100149.94;5009811;28;20041;-77
2023/01/11 08:55:57;;;;;;;9.88;4.25;;;;;;;5.53;100.00;100230.47;5003351;28;20437;-75
2023/01/11 08:58:22;;;;;;;7.00;3.28;;;;;;;4.72;100.00;100142.31;5002316;28;20510;-76
2023/01/11 09:00:48;;;;;;;5.30;2.00;;;;;;;4.94;100.00;100146.19;4994720;28;20072;-76
2023/01/11 09:03:14;;;;;;;6.53;3.08;;;;;;;5.26;100.00;100284.63;4997472;28;20117;-75
2023/01/11 09:05:40;;;;;;;5.03;2.30;;;;;;;4.99;100.00;100186.16;4994768;28;20152;-75
2023/01/11 09:08:07;;;;;;;10.77;3.03;;;;;;;5.23;100.00;100248.16;5001760;28;20164;-75
2023/01/11 09:10:33;;;;;;;8.80;2.83;;;;;;;4.45;100.00;100192.00;5002203;28;20037;-77
2023/01/11 09:12:59;;;;;;;4.70;2.28;;;;;;;4.90;100.00;100253.56;4999739;28;20073;-76
2023/01/11 09:15:25;;;;;;;8.25;2.83;;;;;;;4.96;100.00;100284.00;5003423;28;20091;-75
2023/01/11 09:17:52;;;;;;;5.55;2.90;;;;;;;4.82;100.00;100269.03;5000595;28;20449;-75
2023/01/11 09:20:18;;;;;;;8.85;2.97;;;;;;;3.94;100.00;100143.28;4998303;28;20729;-75
2023/01/11 09:22:51;;;;;;;6.85;3.28;;;;;;;4.68;100.00;100291.22;4993708;28;20125;-77
2023/01/11 09:25:17;;;;;;;9.73;4.68;;;;;;;3.96;100.00;100147.66;4990202;28;20050;-75
2023/01/11 09:27:44;;;;;;;6.10;3.28;;;;;;;4.52;100.00;100277.03;4994656;28;20054;-74
2023/01/11 09:30:11;;;;;;;9.98;2.80;;;;;;;4.13;100.00;100219.88;4996494;28;20041;-76
2023/01/11 09:32:37;;;;;;;8.32;2.70;;;;;;;4.51;100.00;100305.56;4992572;28;20030;-75
2023/01/11 09:35:03;;;;;;;6.05;2.85;;;;;;;3.76;100.00;100188.72;4995611;28;20132;-75
2023/01/11 09:37:29;;;;;;;7.45;3.85;;;;;;;3.93;100.00;100241.06;4997070;28;20088;-75
2023/01/11 09:39:56;;;;;;;4.53;2.72;;;;;;;4.28;100.00;100299.84;4995340;28;20419;-75
2023/01/11 09:42:36;;;;;;;5.95;3.03;;;;;;;4.29;100.00;100302.47;4992726;28;20123;-75
2023/01/11 09:45:20;;;;;;;4.90;2.75;;;;;;;3.62;100.00;100205.69;5008329;28;20054;-75
2023/01/11 09:48:02;;;;;;;4.72;1.95;;;;;;;4.19;100.00;100309.19;4994742;28;20136;-75
2023/01/11 09:50:31;;;;;;;9.15;3.85;;;;;;;3.44;100.00;100187.97;4988973;28;20124;-76
2023/01/11 09:53:07;;;;;;;6.38;2.50;;;;;;;3.73;100.00;100279.47;4994145;28;20045;-76
2023/01/11 09:55:38;;;;;;;10.38;4.10;;;;;;;3.85;100.00;100262.47;4989718;28;20080;-76
2023/01/11 09:58:45;;;;;;;5.55;2.83;;;;;;;3.59;100.00;100275.66;4998225;28;20053;-76
2023/01/11 10:01:36;;;;;;;5.30;3.20;;;;;;;3.63;100.00;100318.09;4965830;28;20050;-76
2023/01/11 10:04:32;;;;;;;6.07;2.50;;;;;;;3.56;100.00;100310.19;4998640;28;20611;-77
2023/01/11 10:07:20;;;;;;;6.53;2.28;;;;;;;3.43;100.00;100322.78;4992853;28;20149;-77
2023/01/11 10:10:17;;;;;;;4.07;2.38;;;;;;;3.27;100.00;100337.91;5005905;28;20603;-77
2023/01/11 10:13:07;;;;;;;6.40;3.40;;;;;;;3.22;100.00;100326.53;5004413;28;20069;-77
2023/01/11 10:15:59;;;;;;;3.03;1.63;;;;;;;3.13;100.00;100327.13;4997494;28;20581;-76
2023/01/11 10:18:57;;;;;;;7.57;3.50;;;;;;;3.07;100.00;100320.91;5002812;28;20060;-75
2023/01/11 10:21:35;;;;;;;5.38;2.88;;;;;;;2.53;100.00;100237.31;5006108;28;20076;-76
2023/01/11 10:24:19;;;;;;;11.13;2.80;;;;;;;2.33;100.00;100251.38;5007885;28;20053;-76
2023/01/11 10:26:47;;;;;;;11.15;2.90;;;;;;;2.78;100.00;100366.69;5006174;28;20654;-76
2023/01/11 10:29:39;;;;;;;10.32;2.78;;;;;;;2.51;100.00;100337.41;5010546;28;20379;-77
2023/01/11 10:32:44;;;;;;;20.27;2.88;;;;;;;1.84;100.00;100240.34;5007388;28;20418;-77
2023/01/11 10:35:40;;;;;;;4.43;2.35;;;;;;;1.96;100.00;100224.34;5000380;28;20448;-76
2023/01/11 10:38:29;;;;;;;6.07;2.22;;;;;;;2.65;100.00;100350.78;5007545;28;20046;-75
2023/01/11 10:41:07;;;;;;;7.35;3.88;;;;;;;2.01;100.00;100290.06;5006084;28;20084;-75
2023/01/11 10:43:42;;;;;;;7.70;3.50;;;;;;;1.66;100.00;100243.25;5005726;28;20128;-76
2023/01/11 10:46:21;;;;;;;8.85;3.75;;;;;;;1.42;100.00;100221.72;5004192;28;20092;-76
2023/01/11 10:48:56;;;;;;;8.63;3.05;;;;;;;1.61;100.00;100262.88;5001018;28;20085;-75
2023/01/11 10:51:42;;;;;;;7.28;3.95;;;;;;;2.25;100.00;100375.41;5010012;28;20053;-75
2023/01/11 10:54:13;;;;;;;10.98;5.07;;;;;;;2.23;100.00;100353.75;4997765;28;20959;-76
2023/01/11 10:56:48;;;;;;;10.32;4.90;;;;;;;1.10;100.00;100195.69;5000359;28;20413;-76
2023/01/11 10:59:40;;;;;;;8.20;5.25;;;;;;;1.94;100.00;100295.00;5005638;28;20133;-77
2023/01/11 11:02:14;;;;;;;5.55;3.13;;;;;;;2.05;100.00;100369.56;5005048;28;20069;-77
2023/01/11 11:05:17;;;;;;;5.40;3.15;;;;;;;2.00;100.00;100376.28;5005880;28;20088;-76
2023/01/11 11:07:57;;;;;;;5.90;3.15;;;;;;;1.98;100.00;100365.00;5005504;28;20602;-76
2023/01/11 11:10:22;;;;;;;10.82;5.05;;;;;;;1.98;100.00;100364.13;5006139;28;20129;-77
2023/01/11 11:13:12;;;;;;;12.00;5.95;;;;;;;1.10;100.00;100260.28;5007976;28;20609;-77
2023/01/11 11:15:49;;;;;;;8.07;4.43;;;;;;;1.64;100.00;100345.75;5001714;28;20046;-78
2023/01/11 11:18:15;;;;;;;8.55;3.53;;;;;;;0.86;100.00;100223.22;5002870;28;20140;-77
2023/01/11 11:20:42;;;;;;;7.47;5.05;;;;;;;1.02;100.00;100241.03;5008505;28;20446;-76
2023/01/11 11:23:13;;;;;;;6.38;3.30;;;;;;;0.79;100.00;100212.66;5006030;28;20128;-77
2023/01/11 11:25:42;;;;;;;11.57;4.43;;;;;;;0.84;100.00;100248.97;5003736;28;20046;-77
2023/01/11 11:28:14;;;;;;;12.25;4.63;;;;;;;1.64;100.00;100371.63;4993165;28;20080;-83
2023/01/11 11:30:46;;;;;;;14.00;4.57;;;;;;;1.50;100.00;100356.41;5005303;28;20045;-81
2023/01/11 11:33:36;;;;;;;7.45;3.85;;;;;;;1.64;100.00;100369.03;5005287;28;20045;-79
2023/01/11 11:36:08;;;;;;;13.32;5.60;;;;;;;1.61;100.00;100412.88;5002004;28;20050;-77
2023/01/11 11:38:40;;;;;;;10.30;6.72;;;;;;;0.12;100.00;100140.53;5004817;28;20045;-77
2023/01/11 11:41:15;;;;;;;6.47;4.45;;;;;;;1.29;100.00;100341.03;5009921;28;20046;-80
2023/01/11 11:43:46;;;;;;;7.78;4.57;;;;;;;1.56;100.00;100393.72;5006220;28;20058;-78
2023/01/11 11:46:14;;;;;;;14.23;3.67;;;;;;;1.64;100.00;100396.59;5006441;28;20048;-78
2023/01/11 11:48:41;;;;;;;9.65;4.65;;;;;;;0.83;100.00;100273.06;5006882;28;20057;-79
2023/01/11 11:51:20;;;;;;;16.83;5.03;;;;;;;1.42;100.00;100362.19;5010928;28;20164;-77
2023/01/11 11:53:53;;;;;;;9.30;4.63;;;;;;;1.21;100.00;100322.66;5001623;28;20417;-78
2023/01/11 11:56:22;;;;;;;6.32;4.70;;;;;;;1.55;100.00;100391.97;5006745;28;20498;-78
2023/01/11 11:58:48;;;;;;;7.80;4.53;;;;;;;0.65;100.00;100238.81;4999745;28;20609;-80
2023/01/11 12:01:23;;;;;;;9.63;5.15;;;;;;;1.39;100.00;100380.19;5007282;28;20092;-80
2023/01/11 12:03:53;;;;;;;10.32;4.60;;;;;;;0.54;100.00;100265.13;5002801;28;20042;-76